Flight Track Log - Related Links

Times and Time Zones

All times are in EST time to prevent confusion due to time zone crossing. See the TAM3053 flight status page for this flight to view local times or setup timezone preferences in your user account.

Time Position Orientation Groundspeed Altitude Reporting Facility
EST Latitude Longitude Course Direction KTS MPH feet Rate Location/Type
Sat 08:39:00 AM -22.5884 -45.9393 33° Northeast  Level Estimated
Sat 08:40:00 AM -22.5018 -45.8801 32° Northeast  Level Estimated
Sat 08:41:00 AM -22.4151 -45.8210 32° Northeast  Level Estimated
Sat 08:42:00 AM -22.3284 -45.7620 32° Northeast  Level Estimated
Sat 08:43:00 AM -22.2416 -45.7031 32° Northeast  Level Estimated
Sat 08:44:00 AM -22.1549 -45.6442 32° Northeast  Level Estimated
Sat 08:45:00 AM -22.0681 -45.5854 32° Northeast  Level Estimated
Sat 08:46:00 AM -21.9813 -45.5266 32° Northeast  Level Estimated
Sat 08:47:00 AM -21.8945 -45.4680 32° Northeast  Level Estimated
Sat 08:48:00 AM -21.8076 -45.4094 32° Northeast  Level Estimated
Sat 08:49:00 AM -21.7208 -45.3508 32° Northeast  Level Estimated
Sat 08:50:00 AM -21.6339 -45.2924 32° Northeast  Level Estimated
Sat 08:51:00 AM -21.5470 -45.2340 32° Northeast  Level Estimated
Sat 08:52:00 AM -21.4601 -45.1757 32° Northeast  Level Estimated
Sat 08:53:00 AM -21.3732 -45.1175 32° Northeast  Level Estimated
Sat 08:54:00 AM -21.2862 -45.0593 32° Northeast  Level Estimated
Sat 08:55:00 AM -21.1992 -45.0012 32° Northeast  Level Estimated
Sat 08:56:00 AM -21.1122 -44.9431 32° Northeast  Level Estimated
Sat 08:57:00 AM -21.0252 -44.8852 32° Northeast  Level Estimated
Sat 08:58:00 AM -20.9382 -44.8273 32° Northeast  Level Estimated
Sat 08:59:00 AM -20.8511 -44.7694 32° Northeast  Level Estimated
Sat 09:00:00 AM -20.7640 -44.7117 32° Northeast  Level Estimated
Sat 09:01:00 AM -20.6769 -44.6540 32° Northeast  Level Estimated
Sat 09:02:00 AM -20.5898 -44.5963 32° Northeast  Level Estimated
Sat 09:03:00 AM -20.5027 -44.5388 32° Northeast  Level Estimated
Sat 09:04:00 AM -20.4155 -44.4813 32° Northeast  Level Estimated
Sat 09:05:00 AM -20.3284 -44.4238 32° Northeast  Level Estimated
Sat 09:06:00 AM -20.2412 -44.3665 32° Northeast  Level Estimated
Sat 09:07:00 AM -20.1540 -44.3092 32° Northeast  Level Estimated
Sat 09:08:00 AM -20.0667 -44.2519 32° Northeast  Level Estimated
Sat 09:09:00 AM -19.9795 -44.1947 32° Northeast  Level Estimated
Sat 09:10:00 AM -19.8922 -44.1376 32° Northeast  Level Estimated
Sat 09:11:00 AM -19.8049 -44.0806 32° Northeast  Level Estimated
Sat 09:12:00 AM -19.7176 -44.0235 32° Northeast  Level Estimated
Sat 09:13:00 AM -19.6338 -43.9689 32° Northeast  Level Estimated
Sat 09:14:00 AM -19.6338 -43.9689 North  Level Estimated
Sat 09:15:00 AM -19.6338 -43.9689 North  Level Estimated
Sat 09:16:00 AM -19.6338 -43.9689 North  Level Estimated
Sat 09:17:00 AM -19.6338 -43.9689 North  Level Estimated
Sat 09:18:00 AM -19.6338 -43.9689 North  Level Estimated
Sat 09:19:00 AM -19.6338 -43.9689 North  Level Estimated
Sat 09:20:00 AM -19.6338 -43.9689 North  Level Estimated
Sat 09:21:00 AM -19.6338 -43.9689 North  Level Estimated
Sat 09:22:00 AM -19.6338 -43.9689 North  Level Estimated
Sat 09:23:00 AM -19.6338 -43.9689 North  Level Estimated
Sat 09:24:00 AM -19.6338 -43.9689 North  Level Estimated
Sat 09:25:00 AM -19.6338 -43.9689 North  Level Estimated
Sat 09:26:00 AM -19.6338 -43.9689 North  Level Estimated
Sat 09:27:00 AM -19.6338 -43.9689 North  Level Estimated
Sat 09:28:00 AM -19.6338 -43.9689 North  Level Estimated
Sat 09:29:00 AM -19.6338 -43.9689 North  Level Estimated

Login

Don't have an account? Register now (free) for customized features, flight alerts, and more!